Powidz Military Air Base


Codes: EPPW/
Name: Powidz Military Air Base
City:
Country: Poland
Elevation: 371 ft.

Photos at Powidz Military Air Base


   Photos courtesy of SpottingLog. You can add your own sightings and photos by signing up for a free trial today.



No photos found.

Weather at Powidz Military Air Base


Time (UTC)DescriptionTempratureWindCloud coverageVisibilityPressureHumidity
16-Jun-2024 09:00Light Rain17°C7 mph, SE100%10000m1012hPa86%
16-Jun-2024 12:00Light Rain17°C4 mph, E100%10000m1012hPa84%
16-Jun-2024 15:00Overcast Clouds18°C4 mph, E100%10000m1012hPa76%
16-Jun-2024 18:00Overcast Clouds18°C4 mph, SE85%10000m1011hPa83%
16-Jun-2024 21:00Clear Sky14°C4 mph, E5%10000m1013hPa93%
17-Jun-2024 00:00Clear Sky13°C4 mph, SE5%10000m1014hPa94%
17-Jun-2024 03:00Clear Sky13°C7 mph, SE7%10000m1014hPa94%
17-Jun-2024 06:00Broken Clouds16°C4 mph, NW52%10000m1015hPa82%
17-Jun-2024 09:00Overcast Clouds17°C2 mph, SW100%10000m1016hPa80%
17-Jun-2024 12:00Overcast Clouds22°C9 mph, SW97%10000m1015hPa61%
17-Jun-2024 15:00Light Rain24°C9 mph, W82%10000m1014hPa57%
17-Jun-2024 18:00Light Rain20°C4 mph, SW81%10000m1015hPa76%
17-Jun-2024 21:00Overcast Clouds17°C4 mph, SW100%10000m1016hPa82%
18-Jun-2024 00:00Overcast Clouds17°C7 mph, SW100%10000m1016hPa86%
18-Jun-2024 03:00Overcast Clouds16°C7 mph, SW100%10000m1016hPa88%
18-Jun-2024 06:00Broken Clouds19°C9 mph, W75%10000m1016hPa79%
18-Jun-2024 09:00Overcast Clouds22°C9 mph, SW86%10000m1017hPa65%
18-Jun-2024 12:00Light Rain24°C9 mph, SW93%10000m1016hPa59%
18-Jun-2024 15:00Light Rain24°C2 mph, SW100%10000m1015hPa58%
18-Jun-2024 18:00Overcast Clouds22°C4 mph, SE95%10000m1013hPa74%
18-Jun-2024 21:00Overcast Clouds19°C9 mph, SE98%10000m1011hPa76%
19-Jun-2024 00:00Moderate Rain17°C4 mph, SE99%10000m1011hPa96%
19-Jun-2024 03:00Light Rain17°C7 mph, SW100%10000m1008hPa96%
19-Jun-2024 06:00Light Rain17°C22 mph, W100%10000m1009hPa92%
19-Jun-2024 09:00Light Rain16°C16 mph, NW100%10000m1014hPa76%
19-Jun-2024 12:00Light Rain19°C18 mph, NW88%10000m1015hPa59%
19-Jun-2024 15:00Light Rain18°C18 mph, NW54%10000m1017hPa59%
19-Jun-2024 18:00Scattered Clouds15°C13 mph, NW37%10000m1018hPa65%
19-Jun-2024 21:00Scattered Clouds13°C11 mph, W27%10000m1020hPa74%
20-Jun-2024 00:00Broken Clouds10°C9 mph, W58%10000m1021hPa91%
20-Jun-2024 03:00Clear Sky8°C9 mph, W6%10000m1022hPa94%
20-Jun-2024 06:00Clear Sky13°C13 mph, W4%10000m1022hPa70%
20-Jun-2024 09:00Clear Sky17°C11 mph, W7%10000m1022hPa50%
20-Jun-2024 12:00Clear Sky20°C11 mph, W6%10000m1021hPa45%
20-Jun-2024 15:00Few Clouds21°C7 mph, W15%10000m1020hPa44%
20-Jun-2024 18:00Few Clouds18°C7 mph, S13%10000m1019hPa62%
20-Jun-2024 21:00Clear Sky15°C7 mph, SE5%10000m1019hPa60%
21-Jun-2024 00:00Clear Sky14°C7 mph, SE5%10000m1018hPa64%
21-Jun-2024 03:00Broken Clouds13°C9 mph, SE56%10000m1017hPa69%
21-Jun-2024 06:00Broken Clouds18°C11 mph, SE77%10000m1016hPa66%